sensor_id;sensor_type;location;lat;lon;timestamp;P1;durP1;ratioP1;P2;durP2;ratioP2
60612;SDS011;46443;59.792;17.626;2023-03-07T00:00:35;5.65;;;1.90;;
60612;SDS011;46443;59.792;17.626;2023-03-07T00:03:01;2.53;;;1.88;;
60612;SDS011;46443;59.792;17.626;2023-03-07T00:05:28;2.88;;;2.00;;
60612;SDS011;46443;59.792;17.626;2023-03-07T00:07:54;2.50;;;2.00;;
60612;SDS011;46443;59.792;17.626;2023-03-07T00:10:20;2.47;;;2.10;;
60612;SDS011;46443;59.792;17.626;2023-03-07T00:12:46;2.47;;;1.80;;
60612;SDS011;46443;59.792;17.626;2023-03-07T00:15:12;2.70;;;1.83;;
60612;SDS011;46443;59.792;17.626;2023-03-07T00:17:38;2.75;;;1.95;;
60612;SDS011;46443;59.792;17.626;2023-03-07T00:20:04;3.22;;;2.00;;
60612;SDS011;46443;59.792;17.626;2023-03-07T00:22:31;2.03;;;1.77;;
60612;SDS011;46443;59.792;17.626;2023-03-07T00:24:58;3.35;;;2.28;;
60612;SDS011;46443;59.792;17.626;2023-03-07T00:27:24;3.25;;;2.22;;
60612;SDS011;46443;59.792;17.626;2023-03-07T00:29:50;1.98;;;1.58;;
60612;SDS011;46443;59.792;17.626;2023-03-07T00:32:16;2.63;;;1.90;;
60612;SDS011;46443;59.792;17.626;2023-03-07T00:34:42;4.07;;;2.20;;
60612;SDS011;46443;59.792;17.626;2023-03-07T00:37:08;4.13;;;2.20;;
60612;SDS011;46443;59.792;17.626;2023-03-07T00:39:34;4.32;;;2.72;;
60612;SDS011;46443;59.792;17.626;2023-03-07T00:42:00;3.22;;;1.98;;
60612;SDS011;46443;59.792;17.626;2023-03-07T00:44:26;2.97;;;2.08;;
60612;SDS011;46443;59.792;17.626;2023-03-07T00:46:54;4.95;;;2.08;;
60612;SDS011;46443;59.792;17.626;2023-03-07T00:49:21;2.85;;;1.85;;
60612;SDS011;46443;59.792;17.626;2023-03-07T00:51:47;3.72;;;2.10;;
60612;SDS011;46443;59.792;17.626;2023-03-07T00:54:13;1.92;;;1.55;;
60612;SDS011;46443;59.792;17.626;2023-03-07T00:56:39;2.15;;;1.77;;
60612;SDS011;46443;59.792;17.626;2023-03-07T00:59:05;2.75;;;1.85;;
60612;SDS011;46443;59.792;17.626;2023-03-07T01:01:32;3.25;;;2.00;;
60612;SDS011;46443;59.792;17.626;2023-03-07T01:03:58;2.70;;;1.80;;
60612;SDS011;46443;59.792;17.626;2023-03-07T01:06:25;2.20;;;1.55;;
60612;SDS011;46443;59.792;17.626;2023-03-07T01:08:51;2.72;;;1.80;;
60612;SDS011;46443;59.792;17.626;2023-03-07T01:11:17;6.95;;;1.90;;
60612;SDS011;46443;59.792;17.626;2023-03-07T01:13:44;2.80;;;1.95;;
60612;SDS011;46443;59.792;17.626;2023-03-07T01:18:36;3.40;;;1.90;;
60612;SDS011;46443;59.792;17.626;2023-03-07T01:21:09;2.85;;;1.35;;
60612;SDS011;46443;59.792;17.626;2023-03-07T01:23:35;2.95;;;1.98;;
60612;SDS011;46443;59.792;17.626;2023-03-07T01:26:01;2.10;;;1.70;;
60612;SDS011;46443;59.792;17.626;2023-03-07T01:28:27;2.58;;;1.90;;
60612;SDS011;46443;59.792;17.626;2023-03-07T01:30:57;3.78;;;1.92;;
60612;SDS011;46443;59.792;17.626;2023-03-07T01:33:23;3.20;;;1.92;;
60612;SDS011;46443;59.792;17.626;2023-03-07T01:35:49;2.20;;;1.80;;
60612;SDS011;46443;59.792;17.626;2023-03-07T01:38:15;3.55;;;1.85;;
60612;SDS011;46443;59.792;17.626;2023-03-07T01:40:42;3.10;;;2.15;;
60612;SDS011;46443;59.792;17.626;2023-03-07T01:43:27;4.53;;;1.85;;
60612;SDS011;46443;59.792;17.626;2023-03-07T01:48:29;3.42;;;1.70;;
60612;SDS011;46443;59.792;17.626;2023-03-07T01:50:55;4.07;;;1.90;;
60612;SDS011;46443;59.792;17.626;2023-03-07T01:53:21;4.35;;;1.70;;
60612;SDS011;46443;59.792;17.626;2023-03-07T01:55:47;2.55;;;1.75;;
60612;SDS011;46443;59.792;17.626;2023-03-07T01:58:13;4.15;;;1.92;;
60612;SDS011;46443;59.792;17.626;2023-03-07T02:00:40;3.17;;;1.73;;
60612;SDS011;46443;59.792;17.626;2023-03-07T02:05:40;3.58;;;2.20;;
60612;SDS011;46443;59.792;17.626;2023-03-07T02:08:08;2.08;;;1.52;;
60612;SDS011;46443;59.792;17.626;2023-03-07T02:10:35;2.25;;;1.70;;
60612;SDS011;46443;59.792;17.626;2023-03-07T02:13:01;3.88;;;1.45;;
60612;SDS011;46443;59.792;17.626;2023-03-07T02:15:28;1.95;;;1.80;;
60612;SDS011;46443;59.792;17.626;2023-03-07T02:17:55;2.10;;;1.38;;
60612;SDS011;46443;59.792;17.626;2023-03-07T02:22:48;4.20;;;2.35;;
60612;SDS011;46443;59.792;17.626;2023-03-07T02:27:50;2.83;;;1.90;;
60612;SDS011;46443;59.792;17.626;2023-03-07T02:30:17;1.83;;;1.70;;
60612;SDS011;46443;59.792;17.626;2023-03-07T02:32:43;3.45;;;1.80;;
60612;SDS011;46443;59.792;17.626;2023-03-07T02:35:27;2.88;;;1.70;;
60612;SDS011;46443;59.792;17.626;2023-03-07T02:37:54;1.92;;;1.70;;
60612;SDS011;46443;59.792;17.626;2023-03-07T02:40:22;3.47;;;1.95;;
60612;SDS011;46443;59.792;17.626;2023-03-07T02:42:49;2.38;;;1.75;;
60612;SDS011;46443;59.792;17.626;2023-03-07T02:45:17;2.05;;;1.70;;
60612;SDS011;46443;59.792;17.626;2023-03-07T02:47:43;3.88;;;1.98;;
60612;SDS011;46443;59.792;17.626;2023-03-07T02:50:10;1.70;;;1.35;;
60612;SDS011;46443;59.792;17.626;2023-03-07T02:52:37;2.00;;;1.73;;
60612;SDS011;46443;59.792;17.626;2023-03-07T02:55:03;1.73;;;1.45;;
60612;SDS011;46443;59.792;17.626;2023-03-07T02:57:29;3.47;;;1.95;;
60612;SDS011;46443;59.792;17.626;2023-03-07T02:59:55;2.00;;;1.77;;
60612;SDS011;46443;59.792;17.626;2023-03-07T03:02:21;2.05;;;1.60;;
60612;SDS011;46443;59.792;17.626;2023-03-07T03:04:47;4.07;;;1.95;;
60612;SDS011;46443;59.792;17.626;2023-03-07T03:07:14;2.35;;;1.70;;
60612;SDS011;46443;59.792;17.626;2023-03-07T03:09:40;3.17;;;1.70;;
60612;SDS011;46443;59.792;17.626;2023-03-07T03:12:06;2.40;;;2.03;;
60612;SDS011;46443;59.792;17.626;2023-03-07T03:14:32;3.78;;;2.33;;
60612;SDS011;46443;59.792;17.626;2023-03-07T03:16:58;3.15;;;1.70;;
60612;SDS011;46443;59.792;17.626;2023-03-07T03:19:24;1.70;;;1.60;;
60612;SDS011;46443;59.792;17.626;2023-03-07T03:21:50;1.92;;;1.83;;
60612;SDS011;46443;59.792;17.626;2023-03-07T03:24:16;3.15;;;1.98;;
60612;SDS011;46443;59.792;17.626;2023-03-07T03:26:42;1.60;;;1.50;;
60612;SDS011;46443;59.792;17.626;2023-03-07T03:29:08;1.63;;;1.40;;
60612;SDS011;46443;59.792;17.626;2023-03-07T03:31:35;1.58;;;1.48;;
60612;SDS011;46443;59.792;17.626;2023-03-07T03:34:01;2.67;;;1.80;;
60612;SDS011;46443;59.792;17.626;2023-03-07T03:36:29;1.70;;;1.60;;
60612;SDS011;46443;59.792;17.626;2023-03-07T03:38:55;2.78;;;1.90;;
60612;SDS011;46443;59.792;17.626;2023-03-07T03:41:22;2.78;;;1.70;;
60612;SDS011;46443;59.792;17.626;2023-03-07T03:43:48;2.20;;;2.00;;
60612;SDS011;46443;59.792;17.626;2023-03-07T03:46:14;2.25;;;1.70;;
60612;SDS011;46443;59.792;17.626;2023-03-07T03:48:53;1.60;;;1.50;;
60612;SDS011;46443;59.792;17.626;2023-03-07T03:51:20;2.60;;;1.98;;
60612;SDS011;46443;59.792;17.626;2023-03-07T03:53:46;2.42;;;1.75;;
60612;SDS011;46443;59.792;17.626;2023-03-07T03:56:13;1.92;;;1.58;;
60612;SDS011;46443;59.792;17.626;2023-03-07T03:58:40;1.50;;;1.40;;
60612;SDS011;46443;59.792;17.626;2023-03-07T04:01:07;2.08;;;1.63;;
60612;SDS011;46443;59.792;17.626;2023-03-07T04:03:34;2.03;;;1.50;;
60612;SDS011;46443;59.792;17.626;2023-03-07T04:06:00;1.30;;;1.20;;
60612;SDS011;46443;59.792;17.626;2023-03-07T04:08:27;2.47;;;1.35;;
60612;SDS011;46443;59.792;17.626;2023-03-07T04:10:53;3.47;;;1.65;;
60612;SDS011;46443;59.792;17.626;2023-03-07T04:13:19;4.80;;;2.03;;
60612;SDS011;46443;59.792;17.626;2023-03-07T04:15:45;1.98;;;1.65;;
60612;SDS011;46443;59.792;17.626;2023-03-07T04:18:11;1.73;;;1.33;;
60612;SDS011;46443;59.792;17.626;2023-03-07T04:20:37;4.10;;;1.85;;
60612;SDS011;46443;59.792;17.626;2023-03-07T04:23:03;1.90;;;1.40;;
60612;SDS011;46443;59.792;17.626;2023-03-07T04:25:29;5.68;;;1.70;;
60612;SDS011;46443;59.792;17.626;2023-03-07T04:27:55;2.90;;;1.77;;
60612;SDS011;46443;59.792;17.626;2023-03-07T04:30:22;2.08;;;1.70;;
60612;SDS011;46443;59.792;17.626;2023-03-07T04:32:48;1.63;;;1.50;;
60612;SDS011;46443;59.792;17.626;2023-03-07T04:35:14;1.40;;;1.30;;
60612;SDS011;46443;59.792;17.626;2023-03-07T04:37:40;3.13;;;2.10;;
60612;SDS011;46443;59.792;17.626;2023-03-07T04:40:06;2.00;;;1.67;;
60612;SDS011;46443;59.792;17.626;2023-03-07T04:42:32;2.92;;;1.98;;
60612;SDS011;46443;59.792;17.626;2023-03-07T04:44:58;2.92;;;2.45;;
60612;SDS011;46443;59.792;17.626;2023-03-07T04:47:24;2.78;;;1.88;;
60612;SDS011;46443;59.792;17.626;2023-03-07T04:49:51;3.95;;;1.95;;
60612;SDS011;46443;59.792;17.626;2023-03-07T04:52:17;6.40;;;3.08;;
60612;SDS011;46443;59.792;17.626;2023-03-07T04:54:43;1.92;;;1.63;;
60612;SDS011;46443;59.792;17.626;2023-03-07T04:57:09;3.15;;;1.98;;
60612;SDS011;46443;59.792;17.626;2023-03-07T04:59:35;5.68;;;2.63;;
60612;SDS011;46443;59.792;17.626;2023-03-07T05:02:07;10.05;;;3.13;;
60612;SDS011;46443;59.792;17.626;2023-03-07T05:06:59;3.47;;;2.00;;
60612;SDS011;46443;59.792;17.626;2023-03-07T05:09:25;6.50;;;2.78;;
60612;SDS011;46443;59.792;17.626;2023-03-07T05:11:51;8.73;;;4.47;;
60612;SDS011;46443;59.792;17.626;2023-03-07T05:14:17;14.65;;;2.97;;
60612;SDS011;46443;59.792;17.626;2023-03-07T05:16:43;4.97;;;2.72;;
60612;SDS011;46443;59.792;17.626;2023-03-07T05:19:09;4.57;;;2.70;;
60612;SDS011;46443;59.792;17.626;2023-03-07T05:21:37;5.72;;;2.08;;
60612;SDS011;46443;59.792;17.626;2023-03-07T05:24:04;6.22;;;3.33;;
60612;SDS011;46443;59.792;17.626;2023-03-07T05:26:31;4.15;;;2.35;;
60612;SDS011;46443;59.792;17.626;2023-03-07T05:28:57;8.50;;;3.00;;
60612;SDS011;46443;59.792;17.626;2023-03-07T05:31:23;3.30;;;2.22;;
60612;SDS011;46443;59.792;17.626;2023-03-07T05:33:50;3.35;;;2.25;;
60612;SDS011;46443;59.792;17.626;2023-03-07T05:36:16;9.00;;;2.65;;
60612;SDS011;46443;59.792;17.626;2023-03-07T05:38:42;5.97;;;2.22;;
60612;SDS011;46443;59.792;17.626;2023-03-07T05:41:08;3.33;;;2.58;;
60612;SDS011;46443;59.792;17.626;2023-03-07T05:43:34;5.28;;;2.08;;
60612;SDS011;46443;59.792;17.626;2023-03-07T05:46:00;7.50;;;2.60;;
60612;SDS011;46443;59.792;17.626;2023-03-07T05:48:26;2.22;;;1.85;;
60612;SDS011;46443;59.792;17.626;2023-03-07T05:50:52;6.05;;;2.67;;
60612;SDS011;46443;59.792;17.626;2023-03-07T05:53:18;4.88;;;2.10;;
60612;SDS011;46443;59.792;17.626;2023-03-07T05:55:45;5.85;;;2.72;;
60612;SDS011;46443;59.792;17.626;2023-03-07T05:58:11;3.08;;;1.85;;
60612;SDS011;46443;59.792;17.626;2023-03-07T06:00:37;2.85;;;1.73;;
60612;SDS011;46443;59.792;17.626;2023-03-07T06:03:03;8.18;;;2.33;;
60612;SDS011;46443;59.792;17.626;2023-03-07T06:05:29;5.97;;;2.55;;
60612;SDS011;46443;59.792;17.626;2023-03-07T06:07:55;2.80;;;1.55;;
60612;SDS011;46443;59.792;17.626;2023-03-07T06:10:21;4.22;;;1.98;;
60612;SDS011;46443;59.792;17.626;2023-03-07T06:12:48;3.22;;;2.25;;
60612;SDS011;46443;59.792;17.626;2023-03-07T06:15:14;2.90;;;2.10;;
60612;SDS011;46443;59.792;17.626;2023-03-07T06:17:41;2.70;;;1.83;;
60612;SDS011;46443;59.792;17.626;2023-03-07T06:20:07;2.35;;;1.65;;
60612;SDS011;46443;59.792;17.626;2023-03-07T06:22:33;2.60;;;1.60;;
60612;SDS011;46443;59.792;17.626;2023-03-07T06:25:02;2.95;;;1.80;;
60612;SDS011;46443;59.792;17.626;2023-03-07T06:27:31;3.08;;;1.55;;
60612;SDS011;46443;59.792;17.626;2023-03-07T06:29:57;2.05;;;1.75;;
60612;SDS011;46443;59.792;17.626;2023-03-07T06:32:23;2.53;;;2.00;;
60612;SDS011;46443;59.792;17.626;2023-03-07T06:34:49;2.53;;;1.98;;
60612;SDS011;46443;59.792;17.626;2023-03-07T06:37:15;1.73;;;1.60;;
60612;SDS011;46443;59.792;17.626;2023-03-07T06:39:41;2.10;;;1.90;;
60612;SDS011;46443;59.792;17.626;2023-03-07T06:42:07;2.28;;;1.80;;
60612;SDS011;46443;59.792;17.626;2023-03-07T06:44:33;4.57;;;2.00;;
60612;SDS011;46443;59.792;17.626;2023-03-07T06:46:59;3.78;;;2.17;;
60612;SDS011;46443;59.792;17.626;2023-03-07T06:49:26;3.47;;;2.17;;
60612;SDS011;46443;59.792;17.626;2023-03-07T06:51:52;4.65;;;2.30;;
60612;SDS011;46443;59.792;17.626;2023-03-07T06:54:18;2.65;;;1.92;;
60612;SDS011;46443;59.792;17.626;2023-03-07T06:56:44;1.85;;;1.60;;
60612;SDS011;46443;59.792;17.626;2023-03-07T06:59:10;3.78;;;1.92;;
60612;SDS011;46443;59.792;17.626;2023-03-07T07:01:36;2.55;;;2.05;;
60612;SDS011;46443;59.792;17.626;2023-03-07T07:04:02;4.15;;;2.22;;
60612;SDS011;46443;59.792;17.626;2023-03-07T07:06:28;2.95;;;1.70;;
60612;SDS011;46443;59.792;17.626;2023-03-07T07:08:55;3.75;;;2.15;;
60612;SDS011;46443;59.792;17.626;2023-03-07T07:11:23;1.95;;;1.70;;
60612;SDS011;46443;59.792;17.626;2023-03-07T07:13:49;3.63;;;2.00;;
60612;SDS011;46443;59.792;17.626;2023-03-07T07:16:16;3.38;;;2.15;;
60612;SDS011;46443;59.792;17.626;2023-03-07T07:18:42;2.95;;;1.70;;
60612;SDS011;46443;59.792;17.626;2023-03-07T07:21:08;3.63;;;1.60;;
60612;SDS011;46443;59.792;17.626;2023-03-07T07:23:34;3.40;;;2.35;;
60612;SDS011;46443;59.792;17.626;2023-03-07T07:26:01;2.10;;;1.60;;
60612;SDS011;46443;59.792;17.626;2023-03-07T07:28:27;3.55;;;1.85;;
60612;SDS011;46443;59.792;17.626;2023-03-07T07:30:53;3.95;;;2.05;;
60612;SDS011;46443;59.792;17.626;2023-03-07T07:33:19;3.78;;;1.75;;
60612;SDS011;46443;59.792;17.626;2023-03-07T07:35:45;4.53;;;2.00;;
60612;SDS011;46443;59.792;17.626;2023-03-07T07:38:12;2.88;;;1.83;;
60612;SDS011;46443;59.792;17.626;2023-03-07T07:40:38;4.90;;;2.40;;
60612;SDS011;46443;59.792;17.626;2023-03-07T07:43:04;3.65;;;2.25;;
60612;SDS011;46443;59.792;17.626;2023-03-07T07:45:30;2.65;;;2.03;;
60612;SDS011;46443;59.792;17.626;2023-03-07T07:47:56;3.47;;;1.95;;
60612;SDS011;46443;59.792;17.626;2023-03-07T07:50:23;4.80;;;2.22;;
60612;SDS011;46443;59.792;17.626;2023-03-07T07:52:49;5.55;;;2.20;;
60612;SDS011;46443;59.792;17.626;2023-03-07T07:55:17;4.55;;;2.47;;
60612;SDS011;46443;59.792;17.626;2023-03-07T07:57:43;2.80;;;2.00;;
60612;SDS011;46443;59.792;17.626;2023-03-07T08:00:10;9.77;;;2.50;;
60612;SDS011;46443;59.792;17.626;2023-03-07T08:02:36;4.22;;;2.28;;
60612;SDS011;46443;59.792;17.626;2023-03-07T08:05:05;5.65;;;2.53;;
60612;SDS011;46443;59.792;17.626;2023-03-07T08:07:31;3.53;;;2.50;;
60612;SDS011;46443;59.792;17.626;2023-03-07T08:09:58;5.38;;;2.40;;
60612;SDS011;46443;59.792;17.626;2023-03-07T08:12:24;4.35;;;2.55;;
60612;SDS011;46443;59.792;17.626;2023-03-07T08:14:50;4.07;;;2.40;;
60612;SDS011;46443;59.792;17.626;2023-03-07T08:17:16;3.88;;;2.22;;
60612;SDS011;46443;59.792;17.626;2023-03-07T08:19:42;5.32;;;2.78;;
60612;SDS011;46443;59.792;17.626;2023-03-07T08:22:08;7.18;;;3.13;;
60612;SDS011;46443;59.792;17.626;2023-03-07T08:24:34;4.80;;;2.25;;
60612;SDS011;46443;59.792;17.626;2023-03-07T08:27:00;5.03;;;2.33;;
60612;SDS011;46443;59.792;17.626;2023-03-07T08:29:27;4.75;;;2.95;;
60612;SDS011;46443;59.792;17.626;2023-03-07T08:31:53;5.05;;;2.85;;
60612;SDS011;46443;59.792;17.626;2023-03-07T08:34:19;3.90;;;2.47;;
60612;SDS011;46443;59.792;17.626;2023-03-07T08:36:45;6.45;;;2.90;;
60612;SDS011;46443;59.792;17.626;2023-03-07T08:39:12;4.43;;;2.90;;
60612;SDS011;46443;59.792;17.626;2023-03-07T08:41:38;4.80;;;2.70;;
60612;SDS011;46443;59.792;17.626;2023-03-07T08:44:04;5.88;;;2.83;;
60612;SDS011;46443;59.792;17.626;2023-03-07T08:46:30;3.83;;;2.63;;
60612;SDS011;46443;59.792;17.626;2023-03-07T08:48:56;4.28;;;2.20;;
60612;SDS011;46443;59.792;17.626;2023-03-07T08:51:22;6.93;;;2.80;;
60612;SDS011;46443;59.792;17.626;2023-03-07T08:53:48;4.28;;;2.17;;
60612;SDS011;46443;59.792;17.626;2023-03-07T08:56:16;3.13;;;2.67;;
60612;SDS011;46443;59.792;17.626;2023-03-07T08:58:42;5.45;;;2.55;;
60612;SDS011;46443;59.792;17.626;2023-03-07T09:01:09;4.85;;;2.47;;
60612;SDS011;46443;59.792;17.626;2023-03-07T09:03:36;3.60;;;2.00;;
60612;SDS011;46443;59.792;17.626;2023-03-07T09:06:03;2.95;;;1.83;;
60612;SDS011;46443;59.792;17.626;2023-03-07T09:08:30;3.42;;;1.98;;
60612;SDS011;46443;59.792;17.626;2023-03-07T09:11:00;4.57;;;1.98;;
60612;SDS011;46443;59.792;17.626;2023-03-07T09:13:29;3.00;;;1.75;;
60612;SDS011;46443;59.792;17.626;2023-03-07T09:15:55;5.60;;;1.90;;
60612;SDS011;46443;59.792;17.626;2023-03-07T09:18:21;3.47;;;1.95;;
60612;SDS011;46443;59.792;17.626;2023-03-07T09:20:47;3.72;;;1.90;;
60612;SDS011;46443;59.792;17.626;2023-03-07T09:23:13;1.55;;;1.45;;
60612;SDS011;46443;59.792;17.626;2023-03-07T09:25:39;4.30;;;1.80;;
60612;SDS011;46443;59.792;17.626;2023-03-07T09:28:05;4.57;;;1.77;;
60612;SDS011;46443;59.792;17.626;2023-03-07T09:30:31;3.47;;;1.60;;
60612;SDS011;46443;59.792;17.626;2023-03-07T09:32:57;1.98;;;1.58;;
60612;SDS011;46443;59.792;17.626;2023-03-07T09:35:23;3.80;;;1.83;;
60612;SDS011;46443;59.792;17.626;2023-03-07T09:37:49;2.90;;;1.80;;
60612;SDS011;46443;59.792;17.626;2023-03-07T09:40:17;5.13;;;1.73;;
60612;SDS011;46443;59.792;17.626;2023-03-07T09:53:02;3.22;;;1.60;;
60612;SDS011;46443;59.792;17.626;2023-03-07T09:55:28;2.20;;;1.58;;
60612;SDS011;46443;59.792;17.626;2023-03-07T09:57:59;4.25;;;1.90;;
60612;SDS011;46443;59.792;17.626;2023-03-07T10:00:33;7.18;;;2.03;;
60612;SDS011;46443;59.792;17.626;2023-03-07T10:05:41;2.00;;;1.40;;
60612;SDS011;46443;59.792;17.626;2023-03-07T10:08:19;1.20;;;1.10;;
60612;SDS011;46443;59.792;17.626;2023-03-07T10:10:49;1.63;;;1.33;;
60612;SDS011;46443;59.792;17.626;2023-03-07T10:15:47;2.63;;;1.50;;
60612;SDS011;46443;59.792;17.626;2023-03-07T10:25:52;1.65;;;1.40;;
60612;SDS011;46443;59.792;17.626;2023-03-07T10:28:25;1.58;;;1.40;;
60612;SDS011;46443;59.792;17.626;2023-03-07T10:31:36;4.18;;;1.70;;
60612;SDS011;46443;59.792;17.626;2023-03-07T10:33:43;1.90;;;1.40;;
60612;SDS011;46443;59.792;17.626;2023-03-07T10:38:56;6.38;;;1.80;;
60612;SDS011;46443;59.792;17.626;2023-03-07T10:41:25;1.95;;;1.48;;
60612;SDS011;46443;59.792;17.626;2023-03-07T10:43:51;3.67;;;1.50;;
60612;SDS011;46443;59.792;17.626;2023-03-07T10:46:23;2.00;;;1.50;;
60612;SDS011;46443;59.792;17.626;2023-03-07T10:48:58;1.75;;;1.38;;
60612;SDS011;46443;59.792;17.626;2023-03-07T10:53:52;2.60;;;1.73;;
60612;SDS011;46443;59.792;17.626;2023-03-07T10:56:20;2.13;;;1.60;;
60612;SDS011;46443;59.792;17.626;2023-03-07T10:59:06;2.55;;;1.40;;
60612;SDS011;46443;59.792;17.626;2023-03-07T11:01:45;1.27;;;1.20;;
60612;SDS011;46443;59.792;17.626;2023-03-07T11:06:50;3.42;;;1.42;;
60612;SDS011;46443;59.792;17.626;2023-03-07T11:09:27;2.95;;;1.30;;
60612;SDS011;46443;59.792;17.626;2023-03-07T11:14:29;1.45;;;1.35;;
60612;SDS011;46443;59.792;17.626;2023-03-07T11:16:59;1.55;;;1.20;;
60612;SDS011;46443;59.792;17.626;2023-03-07T11:19:28;1.88;;;1.40;;
60612;SDS011;46443;59.792;17.626;2023-03-07T11:21:56;2.13;;;1.33;;
60612;SDS011;46443;59.792;17.626;2023-03-07T11:24:28;4.05;;;1.23;;
60612;SDS011;46443;59.792;17.626;2023-03-07T11:26:56;1.83;;;1.35;;
60612;SDS011;46443;59.792;17.626;2023-03-07T11:29:22;2.55;;;1.50;;
60612;SDS011;46443;59.792;17.626;2023-03-07T11:42:22;1.63;;;1.20;;
60612;SDS011;46443;59.792;17.626;2023-03-07T11:44:56;2.17;;;1.52;;
60612;SDS011;46443;59.792;17.626;2023-03-07T12:08:07;1.38;;;1.33;;
60612;SDS011;46443;59.792;17.626;2023-03-07T12:15:39;1.17;;;1.17;;
60612;SDS011;46443;59.792;17.626;2023-03-07T12:18:19;1.60;;;1.20;;
60612;SDS011;46443;59.792;17.626;2023-03-07T12:23:22;1.33;;;1.23;;
60612;SDS011;46443;59.792;17.626;2023-03-07T12:25:56;1.02;;;1.00;;
60612;SDS011;46443;59.792;17.626;2023-03-07T12:34:08;2.50;;;1.10;;
60612;SDS011;46443;59.792;17.626;2023-03-07T12:36:08;1.17;;;1.08;;
60612;SDS011;46443;59.792;17.626;2023-03-07T12:38:40;1.38;;;1.13;;
60612;SDS011;46443;59.792;17.626;2023-03-07T12:43:38;0.93;;;0.93;;
60612;SDS011;46443;59.792;17.626;2023-03-07T12:51:15;0.93;;;0.93;;
60612;SDS011;46443;59.792;17.626;2023-03-07T12:56:14;1.52;;;0.90;;
60612;SDS011;46443;59.792;17.626;2023-03-07T12:58:56;0.93;;;0.93;;
60612;SDS011;46443;59.792;17.626;2023-03-07T13:01:34;1.63;;;1.20;;
60612;SDS011;46443;59.792;17.626;2023-03-07T13:04:15;0.93;;;0.93;;
60612;SDS011;46443;59.792;17.626;2023-03-07T13:06:42;0.73;;;0.73;;
60612;SDS011;46443;59.792;17.626;2023-03-07T13:09:22;1.48;;;1.20;;
60612;SDS011;46443;59.792;17.626;2023-03-07T13:14:40;0.90;;;0.90;;
60612;SDS011;46443;59.792;17.626;2023-03-07T13:17:10;1.45;;;1.27;;
60612;SDS011;46443;59.792;17.626;2023-03-07T13:24:42;1.40;;;1.10;;
60612;SDS011;46443;59.792;17.626;2023-03-07T13:35:10;1.35;;;1.10;;
60612;SDS011;46443;59.792;17.626;2023-03-07T13:42:53;0.90;;;0.90;;
60612;SDS011;46443;59.792;17.626;2023-03-07T13:45:44;1.65;;;1.00;;
60612;SDS011;46443;59.792;17.626;2023-03-07T13:48:12;1.00;;;1.00;;
60612;SDS011;46443;59.792;17.626;2023-03-07T13:58:25;1.08;;;1.00;;
60612;SDS011;46443;59.792;17.626;2023-03-07T14:00:59;1.00;;;1.00;;
60612;SDS011;46443;59.792;17.626;2023-03-07T14:03:47;0.90;;;0.90;;
60612;SDS011;46443;59.792;17.626;2023-03-07T14:06:14;1.08;;;0.98;;
60612;SDS011;46443;59.792;17.626;2023-03-07T14:08:41;0.90;;;0.90;;
60612;SDS011;46443;59.792;17.626;2023-03-07T14:11:14;2.78;;;1.05;;
60612;SDS011;46443;59.792;17.626;2023-03-07T14:16:33;1.13;;;1.13;;
60612;SDS011;46443;59.792;17.626;2023-03-07T14:26:48;1.85;;;1.02;;
60612;SDS011;46443;59.792;17.626;2023-03-07T14:29:16;2.40;;;1.00;;
60612;SDS011;46443;59.792;17.626;2023-03-07T14:31:43;1.05;;;1.05;;
60612;SDS011;46443;59.792;17.626;2023-03-07T14:37:05;1.10;;;1.00;;
60612;SDS011;46443;59.792;17.626;2023-03-07T14:42:07;1.20;;;1.10;;
60612;SDS011;46443;59.792;17.626;2023-03-07T14:51:59;1.98;;;1.70;;
60612;SDS011;46443;59.792;17.626;2023-03-07T14:54:27;1.13;;;1.02;;
60612;SDS011;46443;59.792;17.626;2023-03-07T14:56:54;1.00;;;1.00;;
60612;SDS011;46443;59.792;17.626;2023-03-07T14:59:22;0.95;;;0.95;;
60612;SDS011;46443;59.792;17.626;2023-03-07T15:01:48;1.30;;;1.10;;
60612;SDS011;46443;59.792;17.626;2023-03-07T15:06:57;1.10;;;1.00;;
60612;SDS011;46443;59.792;17.626;2023-03-07T15:09:23;1.23;;;1.00;;
60612;SDS011;46443;59.792;17.626;2023-03-07T15:11:54;2.63;;;1.15;;
60612;SDS011;46443;59.792;17.626;2023-03-07T15:17:02;0.95;;;0.90;;
60612;SDS011;46443;59.792;17.626;2023-03-07T15:21:55;1.30;;;1.10;;
60612;SDS011;46443;59.792;17.626;2023-03-07T15:24:29;1.63;;;1.30;;
60612;SDS011;46443;59.792;17.626;2023-03-07T15:26:57;2.90;;;1.20;;
60612;SDS011;46443;59.792;17.626;2023-03-07T15:29:25;1.40;;;1.20;;
60612;SDS011;46443;59.792;17.626;2023-03-07T15:32:02;0.93;;;0.93;;
60612;SDS011;46443;59.792;17.626;2023-03-07T15:34:31;2.17;;;1.10;;
60612;SDS011;46443;59.792;17.626;2023-03-07T15:39:42;1.25;;;1.15;;
60612;SDS011;46443;59.792;17.626;2023-03-07T15:42:09;1.20;;;1.10;;
60612;SDS011;46443;59.792;17.626;2023-03-07T15:44:44;1.30;;;1.20;;
60612;SDS011;46443;59.792;17.626;2023-03-07T15:47:17;1.20;;;1.10;;
60612;SDS011;46443;59.792;17.626;2023-03-07T15:49:44;1.00;;;1.00;;
60612;SDS011;46443;59.792;17.626;2023-03-07T15:52:17;1.75;;;1.35;;
60612;SDS011;46443;59.792;17.626;2023-03-07T15:54:47;4.20;;;1.30;;
60612;SDS011;46443;59.792;17.626;2023-03-07T15:57:15;1.27;;;1.00;;
60612;SDS011;46443;59.792;17.626;2023-03-07T15:59:46;1.83;;;1.30;;
60612;SDS011;46443;59.792;17.626;2023-03-07T16:04:59;1.17;;;0.98;;
60612;SDS011;46443;59.792;17.626;2023-03-07T16:07:26;0.95;;;0.95;;
60612;SDS011;46443;59.792;17.626;2023-03-07T16:09:52;2.17;;;1.50;;
60612;SDS011;46443;59.792;17.626;2023-03-07T16:12:18;1.35;;;1.25;;
60612;SDS011;46443;59.792;17.626;2023-03-07T16:14:46;2.20;;;1.33;;
60612;SDS011;46443;59.792;17.626;2023-03-07T16:19:42;1.85;;;1.13;;
60612;SDS011;46443;59.792;17.626;2023-03-07T16:22:14;2.35;;;1.30;;
60612;SDS011;46443;59.792;17.626;2023-03-07T16:24:41;1.30;;;1.20;;
60612;SDS011;46443;59.792;17.626;2023-03-07T16:27:14;1.75;;;1.23;;
60612;SDS011;46443;59.792;17.626;2023-03-07T16:29:41;1.10;;;1.05;;
60612;SDS011;46443;59.792;17.626;2023-03-07T16:32:17;3.22;;;1.50;;
60612;SDS011;46443;59.792;17.626;2023-03-07T16:34:43;1.73;;;1.35;;
60612;SDS011;46443;59.792;17.626;2023-03-07T16:37:09;1.33;;;1.23;;
60612;SDS011;46443;59.792;17.626;2023-03-07T16:39:35;2.65;;;1.35;;
60612;SDS011;46443;59.792;17.626;2023-03-07T16:42:02;1.50;;;1.40;;
60612;SDS011;46443;59.792;17.626;2023-03-07T16:44:28;1.40;;;1.20;;
60612;SDS011;46443;59.792;17.626;2023-03-07T16:46:56;2.03;;;1.40;;
60612;SDS011;46443;59.792;17.626;2023-03-07T16:49:23;1.90;;;1.50;;
60612;SDS011;46443;59.792;17.626;2023-03-07T16:51:49;2.97;;;1.50;;
60612;SDS011;46443;59.792;17.626;2023-03-07T16:54:15;1.85;;;1.50;;
60612;SDS011;46443;59.792;17.626;2023-03-07T16:56:43;2.33;;;1.50;;
60612;SDS011;46443;59.792;17.626;2023-03-07T16:59:13;1.48;;;1.38;;
60612;SDS011;46443;59.792;17.626;2023-03-07T17:01:41;1.67;;;1.42;;
60612;SDS011;46443;59.792;17.626;2023-03-07T17:04:08;2.47;;;1.58;;
60612;SDS011;46443;59.792;17.626;2023-03-07T17:06:34;2.58;;;1.38;;
60612;SDS011;46443;59.792;17.626;2023-03-07T17:09:03;1.30;;;1.20;;
60612;SDS011;46443;59.792;17.626;2023-03-07T17:11:29;2.35;;;1.60;;
60612;SDS011;46443;59.792;17.626;2023-03-07T17:13:58;3.13;;;1.60;;
60612;SDS011;46443;59.792;17.626;2023-03-07T17:18:51;2.60;;;1.60;;
60612;SDS011;46443;59.792;17.626;2023-03-07T17:21:18;2.05;;;1.50;;
60612;SDS011;46443;59.792;17.626;2023-03-07T17:23:44;2.15;;;1.63;;
60612;SDS011;46443;59.792;17.626;2023-03-07T17:28:42;2.65;;;1.50;;
60612;SDS011;46443;59.792;17.626;2023-03-07T17:31:09;1.80;;;1.50;;